Map

Track Data

SID SEASON NUMBER BASIN SUBBASIN NAME ISO_TIME NATURE LAT LON WMO_WIND WMO_PRES WMO_AGENCY TRACK_TYPE DIST2LAND LANDFALL IFLAG USA_AGENCY USA_ATCF_ID USA_LAT USA_LON USA_RECORD USA_STATUS USA_WIND USA_PRES USA_SSHS USA_R34_NE USA_R34_SE USA_R34_SW USA_R34_NW USA_R50_NE USA_R50_SE USA_R50_SW USA_R50_NW USA_R64_NE USA_R64_SE USA_R64_SW USA_R64_NW USA_POCI USA_ROCI USA_RMW USA_EYE TOKYO_LAT TOKYO_LON TOKYO_GRADE TOKYO_WIND TOKYO_PRES TOKYO_R50_DIR TOKYO_R50_LONG TOKYO_R50_SHORT TOKYO_R30_DIR TOKYO_R30_LONG TOKYO_R30_SHORT TOKYO_LAND CMA_LAT CMA_LON CMA_CAT CMA_WIND CMA_PRES HKO_LAT HKO_LON HKO_CAT HKO_WIND HKO_PRES NEWDELHI_LAT NEWDELHI_LON NEWDELHI_GRADE NEWDELHI_WIND NEWDELHI_PRES NEWDELHI_CI NEWDELHI_DP NEWDELHI_POCI REUNION_LAT REUNION_LON REUNION_TYPE REUNION_WIND REUNION_PRES REUNION_TNUM REUNION_CI REUNION_RMW REUNION_R34_NE REUNION_R34_SE REUNION_R34_SW REUNION_R34_NW REUNION_R50_NE REUNION_R50_SE REUNION_R50_SW REUNION_R50_NW REUNION_R64_NE REUNION_R64_SE REUNION_R64_SW REUNION_R64_NW BOM_LAT BOM_LON BOM_TYPE BOM_WIND BOM_PRES BOM_TNUM BOM_CI BOM_RMW BOM_R34_NE BOM_R34_SE BOM_R34_SW BOM_R34_NW BOM_R50_NE BOM_R50_SE BOM_R50_SW BOM_R50_NW BOM_R64_NE BOM_R64_SE BOM_R64_SW BOM_R64_NW BOM_ROCI BOM_POCI BOM_EYE BOM_POS_METHOD BOM_PRES_METHOD NADI_LAT NADI_LON NADI_CAT NADI_WIND NADI_PRES WELLINGTON_LAT WELLINGTON_LON WELLINGTON_WIND WELLINGTON_PRES DS824_LAT DS824_LON DS824_STAGE DS824_WIND DS824_PRES TD9636_LAT TD9636_LON TD9636_STAGE TD9636_WIND TD9636_PRES TD9635_LAT TD9635_LON TD9635_WIND TD9635_PRES TD9635_ROCI NEUMANN_LAT NEUMANN_LON NEUMANN_CLASS NEUMANN_WIND NEUMANN_PRES MLC_LAT MLC_LON MLC_CLASS MLC_WIND MLC_PRES USA_GUST BOM_GUST BOM_GUST_PER REUNION_GUST REUNION_GUST_PER USA_SEAHGT USA_SEARAD_NE USA_SEARAD_SE USA_SEARAD_SW USA_SEARAD_NW STORM_SPEED STORM_DIR
1963351S11172 1964 119 SP MM NOT_NAMED 1963-12-17 00:00:00 TS -11.4000 171.500 main 624 624 O_________O_O_ jtwc_sh SH031964 -11.4000 171.500 -1 -11.4000 171.500 2 -11.4000 171.500 TC 30 6 109
1963351S11172 1964 119 SP MM NOT_NAMED 1963-12-17 03:00:00 TS -11.5017 171.803 main 642 642 P_________P_P_ SH031964 -11.4976 171.810 -1 -11.5143 171.783 2 -11.4976 171.807 TC 32 6 110
1963351S11172 1964 119 SP MM NOT_NAMED 1963-12-17 06:00:00 TS -11.6057 172.091 main 661 661 O_________P_O_ jtwc_sh SH031964 -11.6000 172.100 -1 -11.6227 172.062 2 -11.6000 172.100 TC 35 6 111
1963351S11172 1964 119 SP MM NOT_NAMED 1963-12-17 09:00:00 TS -11.7105 172.354 main 682 682 P_________P_P_ SH031964 -11.7075 172.358 -1 -11.7198 172.336 2 -11.7075 172.365 TC 35 5 111
1963351S11172 1964 119 SP MM NOT_NAMED 1963-12-17 12:00:00 TS -11.8000 172.600 main 694 694 O_________O_O_ jtwc_sh SH031964 -11.8000 172.600 -1 -11.8000 172.600 2 -11.8000 172.600 TC 35 5 106
1963351S11172 1964 119 SP MM NOT_NAMED 1963-12-17 15:00:00 TS -11.8530 172.852 main 717 717 P_________P_P_ SH031964 -11.8500 172.873 -1 -11.8618 172.848 2 -11.8500 172.815 TC 35 5 103
1963351S11172 1964 119 SP MM NOT_NAMED 1963-12-17 18:00:00 TS -11.9050 173.066 main 736 736 O_________P_O_ jtwc_sh SH031964 -11.9000 173.100 -1 -11.9199 173.062 2 -11.9000 173.000 TC 35 4 109
1963351S11172 1964 119 SP MM NOT_NAMED 1963-12-17 21:00:00 TS -11.9814 173.228 main 740 740 P_________P_P_ SH031964 -11.9775 173.252 -1 -11.9931 173.220 2 -11.9775 173.187 TC 35 3 130
1963351S11172 1964 119 SP MM NOT_NAMED 1963-12-18 00:00:00 TS -12.1000 173.300 main 744 735 O_________O_O_ jtwc_sh SH031964 -12.1000 173.300 -1 -12.1000 173.300 2 -12.1000 173.300 TC 35 3 173
1963351S11172 1964 119 SP MM NOT_NAMED 1963-12-18 03:00:00 TS -12.2828 173.259 main 735 716 P_________P_P_ SH031964 -12.2850 173.230 -1 -12.2762 173.279 2 -12.2850 173.295 TC 37 4 201
1963351S11172 1964 119 SP MM NOT_NAMED 1963-12-18 06:00:00 TS -12.4962 173.146 main 706 687 O_________P_O_ jtwc_sh SH031964 -12.5000 173.100 -1 -12.4850 173.183 2 -12.5000 173.200 TC 40 5 208
1963351S11172 1964 119 SP MM NOT_NAMED 1963-12-18 09:00:00 TS -12.7153 173.026 main 687 667 P_________P_P_ SH031964 -12.7225 173.000 -1 -12.7013 173.045 2 -12.7150 173.058 TC 42 5 211
1963351S11172 1964 119 SP MM NOT_NAMED 1963-12-18 12:00:00 TS -12.9000 172.900 main 667 652 O_________O_O_ jtwc_sh SH031964 -12.9000 172.900 -1 -12.9000 172.900 2 -12.9000 172.900 TC 45 3 251
1963351S11172 1964 119 SP MM NOT_NAMED 1963-12-18 15:00:00 TS -12.8209 172.715 main 652 642 P_________P_P_ SH031964 -12.9500 172.800 -1 -12.9451 172.752 2 -13.0075 172.792 TC 45 3 286
1963351S11172 1964 119 SP MM NOT_NAMED 1963-12-18 18:00:00 TS -12.8189 172.602 main 642 628 O________OP_O_ jtwc_sh SH031964 -13.0000 172.700 -1 -11.2000 172.000 TC 35 996 -12.9851 172.611 2 -13.1000 172.700 TC 45 2 235
1963351S11172 1964 119 SP MM NOT_NAMED 1963-12-18 21:00:00 TS -12.9473 172.531 main 628 613 P________PP_P_ SH031964 -13.1025 172.563 -1 -12.1038 172.431 TC 35 996 -13.1075 172.515 2 -13.1525 172.563 TC 42 5 183
1963351S11172 1964 119 SP MM NOT_NAMED 1963-12-19 00:00:00 TS -13.3200 172.560 main 615 586 O________OO_O_ jtwc_sh SH031964 -13.4000 172.500 -1 -13.0000 172.800 TC 35 996 -13.4000 172.500 2 -13.4000 172.500 TC 40 11 171
1963351S11172 1964 119 SP MM NOT_NAMED 1963-12-19 03:00:00 TS -13.9883 172.694 main 585 568 P________PP_P_ SH031964 -14.0100 172.598 -1 -13.8826 173.056 TC -13.9787 172.621 2 -14.0600 172.597 TC 45 15 168
1963351S11172 1964 119 SP MM NOT_NAMED 1963-12-19 06:00:00 TS -14.7950 172.887 main 571 510 O________PP_O_ jtwc_sh SH031964 -14.8000 172.800 -1 -14.7471 173.213 TC -14.7280 172.824 2 -14.9000 172.800 TC 50 17 166
1963351S11172 1964 119 SP MM NOT_NAMED 1963-12-19 09:00:00 TS -15.6020 173.106 main 510 451 P________PP_P_ SH031964 -15.6001 173.057 -1 -15.5892 173.302 TC -15.5633 173.065 2 -15.6576 173.050 TC 52 17 166
1963351S11172 1964 119 SP MM NOT_NAMED 1963-12-19 12:00:00 TS -16.4008 173.311 main 451 415 O________PO_O_ jtwc_sh SH031964 -16.4000 173.300 -1 -16.4042 173.353 TC -16.4000 173.300 2 -16.4000 173.300 TC 55 16 169
1963351S11172 1964 119 SP MM NOT_NAMED 1963-12-19 15:00:00 TS -17.1236 173.413 main 415 392 P________PP_P_ SH031964 -17.1149 173.408 -1 -17.1876 173.396 TC -17.0932 173.387 2 -17.1074 173.465 TC 55 14 173
1963351S11172 1964 119 SP MM NOT_NAMED 1963-12-19 18:00:00 TS -17.8221 173.507 main 392 380 O________PP_O_ jtwc_sh SH031964 -17.8000 173.500 -1 -17.9346 173.464 TC -17.7760 173.471 2 -17.8000 173.600 TC 55 14 171
1963351S11172 1964 119 SP MM NOT_NAMED 1963-12-19 21:00:00 TS -18.5101 173.633 main 384 372 P________PP_P_ SH031964 -18.4848 173.633 -1 -18.6404 173.588 TC -18.4708 173.619 2 -18.4697 173.691 TC 52 15 166
1963351S11172 1964 119 SP MM NOT_NAMED 1963-12-20 00:00:00 TS -19.2200 173.880 main 372 371 O________OO_O_ jtwc_sh SH031964 -19.2000 173.900 -1 -19.3000 173.800 TC 35 996 -19.2000 173.900 2 -19.2000 173.900 TC 50 16 157
1963351S11172 1964 119 SP MM NOT_NAMED 1963-12-20 03:00:00 TS -19.9927 174.310 main 378 375 P________PP_P_ SH031964 -19.9774 174.368 -1 -19.9102 174.069 TC 40 993 -20.0058 174.385 2 -20.0924 174.360 TC 47 18 149
1963351S11172 1964 119 SP MM NOT_NAMED 1963-12-20 06:00:00 TS -20.7886 174.902 main 393 393 O________OP_O_ jtwc_sh SH031964 -20.8000 175.000 -1 -20.5000 174.500 TC 45 990 -20.8432 175.011 2 -21.0000 175.000 TC 45 20 142
1963351S11172 1964 119 SP MM NOT_NAMED 1963-12-20 09:00:00 TS -21.5685 175.626 main 429 425 P________PP_P_ SH031964 -21.6502 175.735 -1 -21.0929 175.197 TC 42 992 -21.6838 175.732 2 -21.7651 175.728 TC 42 21 138
1963351S11172 1964 119 SP MM NOT_NAMED 1963-12-20 12:00:00 TS -22.3400 176.400 main 473 473 O________OO_O_ jtwc_sh SH031964 -22.5000 176.500 -1 -21.7000 176.000 TC 40 994 -22.5000 176.500 2 -22.5000 176.500 TC 40 21 140
1963351S11172 1964 119 SP MM NOT_NAMED 1963-12-20 15:00:00 TS -23.1342 177.057 main 543 543 P________PP_P_ SH031964 -23.3290 177.129 -1 -22.3644 176.693 TC 37 995 -23.3346 177.147 2 -23.3143 177.186 TC 37 20 142
1963351S11172 1964 119 SP MM NOT_NAMED 1963-12-20 18:00:00 TS -23.9327 177.766 main 626 626 O________OP_O_ jtwc_sh SH031964 -24.1000 177.800 -1 -23.0000 177.400 TC 35 996 -24.1301 177.841 2 -24.1000 177.900 TC 35 21 138
1963351S11172 1964 119 SP MM NOT_NAMED 1963-12-20 21:00:00 TS -24.6814 178.576 main 716 716 P________PP_P_ SH031964 -24.8238 178.603 -1 -23.5336 178.176 TC 32 998 -24.8359 178.639 2 -24.8160 178.661 TC 35 21 130
1963351S11172 1964 119 SP MM NOT_NAMED 1963-12-21 00:00:00 TS -25.3176 179.565 main 795 795 O________OO_O_ jtwc_sh SH031964 -25.4000 179.600 -1 -24.0000 179.000 TC 30 1000 -25.4000 179.600 2 -25.4000 179.600 TC 35 23 119
1963351S11172 1964 119 SP MM NOT_NAMED 1963-12-21 03:00:00 TS -25.7964 180.812 main 880 880 P_________P_P_ SH031964 -25.7823 -179.174 -1 TC -25.7811 -179.220 2 -25.8400 -179.183 TC 35 25 107
1963351S11172 1964 119 SP MM NOT_NAMED 1963-12-21 06:00:00 TS -26.0280 182.179 main 953 953 O_________P_O_ jtwc_sh SH031964 -26.0000 -177.800 -1 -26.0120 -177.883 2 -26.1000 -177.800 TC 35 25 98
1963351S11172 1964 119 SP MM NOT_NAMED 1963-12-21 09:00:00 TS -26.1509 183.576 main 1036 1036 P_________P_P_ SH031964 -26.1366 -176.414 -1 -26.1363 -176.455 2 -26.1940 -176.413 TC 35 25 94
1963351S11172 1964 119 SP MM NOT_NAMED 1963-12-21 12:00:00 TS -26.2000 185.000 main 1113 1113 O_________O_O_ jtwc_sh SH031964 -26.2000 -175.000 -1 -26.2000 -175.000 2 -26.2000 -175.000 TC 35 25 92
1963351S11172 1964 119 SP MM NOT_NAMED 1963-12-21 15:00:00 TS -26.2567 186.408 main 1211 1211 P_________P_P_ SH031964 -26.2636 -173.600 -1 -26.2432 -173.570 2 -26.2561 -173.600 TC 35 25 92
1963351S11172 1964 119 SP MM NOT_NAMED 1963-12-21 18:00:00 TS -26.2936 187.809 main 1309 1309 O_________P_O_ jtwc_sh SH031964 -26.3000 -172.200 -1 -26.2743 -172.165 2 -26.3000 -172.200 TC 35 25 91
1963351S11172 1964 119 SP MM NOT_NAMED 1963-12-21 21:00:00 TS -26.3066 189.205 main 1405 1405 P_________P_P_ SH031964 -26.3102 -170.800 -1 -26.2934 -170.778 2 -26.3127 -170.800 TC 32 25 90
1963351S11172 1964 119 SP MM NOT_NAMED 1963-12-22 00:00:00 TS -26.3000 190.600 main 1428 O_________O_O_ jtwc_sh SH031964 -26.3000 -169.400 -1 -26.3000 -169.400 2 -26.3000 -169.400 TC 30 25 90

Digital Typhoon Data and Search

About IBTrACS Database

This database is a web-friendly format of International Best Track Archive for Climate Stewardship (IBTrACS), a global best track data archive curated by NOAA dating back to 1842.

Updated: 2021-11-26